Time;durP1;ratioP1;P1;durP2;ratioP2;P2;SDS_P1;SDS_P2;PMS_P1;PMS_P2;Temp;Humidity;BMP_temperature;BMP_pressure;BME280_temperature;BME280_humidity;BME280_pressure;Samples;Min_cycle;Max_cycle;Signal;HPM_P1;HPM_P2
2022/10/11 00:01:01;;;;;;;6.03;2.00;;;;;;;;;;5095276;28;20878;-59
2022/10/11 00:03:28;;;;;;;5.53;2.20;;;;;;;;;;5095136;28;20220;-59
2022/10/11 00:05:56;;;;;;;6.70;2.13;;;;;;;;;;5095334;28;20456;-59
2022/10/11 00:08:23;;;;;;;4.73;2.30;;;;;;;;;;5095202;28;20451;-59
2022/10/11 00:10:56;;;;;;;3.67;2.43;;;;;;;;;;5095175;28;20494;-59
2022/10/11 00:13:25;;;;;;;6.87;2.23;;;;;;;;;;5094935;28;20965;-59
2022/10/11 00:15:52;;;;;;;5.20;2.03;;;;;;;;;;5094906;28;20542;-59
2022/10/11 00:18:18;;;;;;;3.93;2.00;;;;;;;;;;5094409;28;20829;-59
2022/10/11 00:20:45;;;;;;;4.33;1.70;;;;;;;;;;5094973;28;20543;-59
2022/10/11 00:23:12;;;;;;;2.63;2.43;;;;;;;;;;5094799;28;20518;-59
2022/10/11 00:25:39;;;;;;;3.20;1.60;;;;;;;;;;5094777;28;20541;-59
2022/10/11 00:28:06;;;;;;;3.77;1.60;;;;;;;;;;5094679;28;20446;-59
2022/10/11 00:30:35;;;;;;;3.90;2.17;;;;;;;;;;5094497;28;20529;-59
2022/10/11 00:33:01;;;;;;;3.00;1.90;;;;;;;;;;5094796;28;20541;-59
2022/10/11 00:35:28;;;;;;;2.75;1.75;;;;;;;;;;5094643;28;20687;-59
2022/10/11 00:37:57;;;;;;;2.97;1.50;;;;;;;;;;5094618;28;20195;-59
2022/10/11 00:40:24;;;;;;;2.00;1.80;;;;;;;;;;5094431;28;20451;-59
2022/10/11 00:42:50;;;;;;;8.47;2.10;;;;;;;;;;5094376;28;20560;-59
2022/10/11 00:45:36;;;;;;;5.37;2.23;;;;;;;;;;5094255;28;20545;-59
2022/10/11 00:48:07;;;;;;;6.43;1.90;;;;;;;;;;5094153;28;20466;-59
2022/10/11 00:50:35;;;;;;;3.43;1.63;;;;;;;;;;5094275;28;20442;-59
2022/10/11 00:53:06;;;;;;;6.13;1.70;;;;;;;;;;5094219;28;20446;-59
2022/10/11 00:55:35;;;;;;;5.53;1.88;;;;;;;;;;5094132;28;20499;-59
2022/10/11 00:58:02;;;;;;;7.63;2.27;;;;;;;;;;5094271;28;20189;-59
2022/10/11 01:00:29;;;;;;;3.73;1.93;;;;;;;;;;5094186;28;20443;-59
2022/10/11 01:02:56;;;;;;;3.07;2.00;;;;;;;;;;5094044;28;20489;-59
2022/10/11 01:05:24;;;;;;;4.93;1.80;;;;;;;;;;5094089;28;20442;-59
2022/10/11 01:07:51;;;;;;;6.07;2.53;;;;;;;;;;5093935;28;20557;-59
2022/10/11 01:10:18;;;;;;;3.50;1.63;;;;;;;;;;5093807;28;20446;-59
2022/10/11 01:12:51;;;;;;;7.80;1.90;;;;;;;;;;5094086;28;20478;-59
2022/10/11 01:15:20;;;;;;;4.40;1.87;;;;;;;;;;5093993;28;20797;-58
2022/10/11 01:17:52;;;;;;;2.85;1.42;;;;;;;;;;5093848;28;20822;-59
2022/10/11 01:20:24;;;;;;;5.40;2.10;;;;;;;;;;5093720;28;20546;-59
2022/10/11 01:23:03;;;;;;;5.73;1.70;;;;;;;;;;5093578;28;21015;-59
2022/10/11 01:25:35;;;;;;;6.40;1.97;;;;;;;;;;5093869;28;20450;-58
2022/10/11 01:28:13;;;;;;;3.00;1.93;;;;;;;;;;5093727;28;20453;-59
2022/10/11 01:30:42;;;;;;;1.90;1.60;;;;;;;;;;5092987;28;20508;-59
2022/10/11 01:33:21;;;;;;;3.90;1.85;;;;;;;;;;5093466;28;21044;-59
2022/10/11 01:35:53;;;;;;;7.33;1.87;;;;;;;;;;5093633;28;20275;-59
2022/10/11 01:38:23;;;;;;;3.67;1.80;;;;;;;;;;5093452;28;20529;-59
2022/10/11 01:40:52;;;;;;;5.30;2.23;;;;;;;;;;5093453;28;20874;-59
2022/10/11 01:43:19;;;;;;;5.53;1.43;;;;;;;;;;5093230;28;20478;-59
2022/10/11 01:45:50;;;;;;;5.50;1.80;;;;;;;;;;5093231;28;20453;-59
2022/10/11 01:48:17;;;;;;;7.87;2.50;;;;;;;;;;5093122;28;20490;-59
2022/10/11 01:50:46;;;;;;;4.50;1.43;;;;;;;;;;5093362;28;20836;-59
2022/10/11 01:53:21;;;;;;;9.60;1.93;;;;;;;;;;5093297;28;20480;-59
2022/10/11 01:55:51;;;;;;;8.60;1.60;;;;;;;;;;5093222;28;20876;-59
2022/10/11 01:58:23;;;;;;;3.70;1.93;;;;;;;;;;5093012;28;20953;-59
2022/10/11 02:00:54;;;;;;;1.43;1.10;;;;;;;;;;5093300;28;20453;-59
2022/10/11 02:03:27;;;;;;;7.47;1.77;;;;;;;;;;5092983;28;21100;-59
2022/10/11 02:05:58;;;;;;;4.07;1.63;;;;;;;;;;5093117;28;20478;-59
2022/10/11 02:08:27;;;;;;;6.27;1.40;;;;;;;;;;5092951;28;20495;-59
2022/10/11 02:10:59;;;;;;;6.83;1.90;;;;;;;;;;5093143;28;20545;-59
2022/10/11 02:13:28;;;;;;;9.90;2.90;;;;;;;;;;5093008;28;20970;-59
2022/10/11 02:15:58;;;;;;;9.50;1.77;;;;;;;;;;5093005;28;20537;-59
2022/10/11 02:18:28;;;;;;;3.90;1.80;;;;;;;;;;5092957;28;20273;-59
2022/10/11 02:20:56;;;;;;;3.00;1.50;;;;;;;;;;5092844;28;20533;-59
2022/10/11 02:23:26;;;;;;;7.13;1.80;;;;;;;;;;5093042;28;21003;-59
2022/10/11 02:25:54;;;;;;;5.83;2.07;;;;;;;;;;5093065;28;20185;-59
2022/10/11 02:28:24;;;;;;;4.67;2.40;;;;;;;;;;5092879;28;20442;-59
2022/10/11 02:30:52;;;;;;;5.67;3.20;;;;;;;;;;5092907;28;20450;-59
2022/10/11 02:33:24;;;;;;;4.53;1.90;;;;;;;;;;5092753;28;20451;-58
2022/10/11 02:35:55;;;;;;;6.65;1.98;;;;;;;;;;5093069;28;20566;-59
2022/10/11 02:38:24;;;;;;;6.40;2.33;;;;;;;;;;5093116;28;20223;-60
2022/10/11 02:40:52;;;;;;;7.77;2.37;;;;;;;;;;5093220;28;20456;-61
2022/10/11 02:43:22;;;;;;;3.47;1.90;;;;;;;;;;5096448;28;20565;-60
2022/10/11 02:45:51;;;;;;;4.60;1.97;;;;;;;;;;5096754;28;20499;-60
2022/10/11 02:48:19;;;;;;;9.63;1.83;;;;;;;;;;5096545;28;20513;-60
2022/10/11 02:50:47;;;;;;;7.03;1.80;;;;;;;;;;5096502;28;20489;-60
2022/10/11 02:53:14;;;;;;;4.70;2.10;;;;;;;;;;5096827;28;20492;-59
2022/10/11 02:55:41;;;;;;;4.40;1.63;;;;;;;;;;5096522;28;20572;-60
2022/10/11 02:58:08;;;;;;;7.03;1.60;;;;;;;;;;5096496;28;20537;-60
2022/10/11 03:00:35;;;;;;;5.03;2.70;;;;;;;;;;5096348;28;20537;-59
2022/10/11 03:03:02;;;;;;;3.13;2.10;;;;;;;;;;5096430;28;20868;-60
2022/10/11 03:05:29;;;;;;;4.83;1.90;;;;;;;;;;5096437;28;20533;-59
2022/10/11 03:07:57;;;;;;;6.33;2.20;;;;;;;;;;5096357;28;20859;-59
2022/10/11 03:10:24;;;;;;;5.30;1.63;;;;;;;;;;5096268;28;20446;-59
2022/10/11 03:12:51;;;;;;;4.07;1.63;;;;;;;;;;5096134;28;20454;-59
2022/10/11 03:15:18;;;;;;;4.93;1.43;;;;;;;;;;5096075;28;20538;-59
2022/10/11 03:17:45;;;;;;;5.10;2.13;;;;;;;;;;5096228;28;20534;-59
2022/10/11 03:20:12;;;;;;;8.90;2.80;;;;;;;;;;5096032;28;20478;-59
2022/10/11 03:22:39;;;;;;;10.50;5.70;;;;;;;;;;5096007;28;20833;-59
2022/10/11 03:25:08;;;;;;;10.50;6.90;;;;;;;;;;5095890;28;20468;-59
2022/10/11 03:27:35;;;;;;;10.93;3.43;;;;;;;;;;5095883;28;20537;-60
2022/10/11 03:30:02;;;;;;;9.03;2.30;;;;;;;;;;5096014;28;20540;-59
2022/10/11 03:32:29;;;;;;;5.70;3.20;;;;;;;;;;5095887;28;20453;-59
2022/10/11 03:34:56;;;;;;;4.40;1.77;;;;;;;;;;5095826;28;20543;-59
2022/10/11 03:37:24;;;;;;;10.20;1.80;;;;;;;;;;5095755;28;20533;-60
2022/10/11 03:39:51;;;;;;;6.10;3.30;;;;;;;;;;5095591;28;20447;-59
2022/10/11 03:42:19;;;;;;;6.78;3.15;;;;;;;;;;5095454;28;20804;-59
2022/10/11 03:44:48;;;;;;;9.17;3.70;;;;;;;;;;5095675;28;20193;-60
2022/10/11 03:47:15;;;;;;;5.10;1.97;;;;;;;;;;5095362;28;20569;-60
2022/10/11 03:49:42;;;;;;;3.67;1.80;;;;;;;;;;5095244;28;20478;-60
2022/10/11 03:52:09;;;;;;;5.90;3.70;;;;;;;;;;5095434;28;20472;-60
2022/10/11 03:54:36;;;;;;;12.33;8.27;;;;;;;;;;5094496;28;20965;-60
2022/10/11 03:57:02;;;;;;;14.47;9.03;;;;;;;;;;5095465;28;20446;-59
2022/10/11 03:59:31;;;;;;;8.93;4.70;;;;;;;;;;5095317;28;20464;-60
2022/10/11 04:01:58;;;;;;;9.05;2.97;;;;;;;;;;5095294;28;20799;-60
2022/10/11 04:04:25;;;;;;;4.40;1.80;;;;;;;;;;5095134;28;20256;-60
2022/10/11 04:06:52;;;;;;;9.27;4.28;;;;;;;;;;5095050;28;20451;-59
2022/10/11 04:09:19;;;;;;;9.07;2.60;;;;;;;;;;5094914;28;20188;-60
2022/10/11 04:11:46;;;;;;;8.13;2.27;;;;;;;;;;5095168;28;20537;-60
2022/10/11 04:14:13;;;;;;;7.50;2.07;;;;;;;;;;5095053;28;20533;-60
2022/10/11 04:16:41;;;;;;;5.47;1.97;;;;;;;;;;5095041;28;20930;-60
2022/10/11 04:19:08;;;;;;;5.73;2.20;;;;;;;;;;5094819;28;20492;-60
2022/10/11 04:21:35;;;;;;;3.07;1.73;;;;;;;;;;5094780;28;20449;-60
2022/10/11 04:24:02;;;;;;;11.63;3.60;;;;;;;;;;5094589;28;20492;-60
2022/10/11 04:26:29;;;;;;;7.15;2.67;;;;;;;;;;5094826;28;20532;-60
2022/10/11 04:28:55;;;;;;;7.20;3.20;;;;;;;;;;5094696;28;20193;-60
2022/10/11 04:31:22;;;;;;;9.00;2.97;;;;;;;;;;5094641;28;20279;-60
2022/10/11 04:33:51;;;;;;;13.80;2.60;;;;;;;;;;5094460;28;20976;-60
2022/10/11 04:36:18;;;;;;;10.63;3.47;;;;;;;;;;5094387;28;20540;-60
2022/10/11 04:38:44;;;;;;;7.70;3.13;;;;;;;;;;5094550;28;20537;-60
2022/10/11 04:41:12;;;;;;;8.20;2.97;;;;;;;;;;5094614;28;20451;-60
2022/10/11 04:43:39;;;;;;;6.07;3.33;;;;;;;;;;5094109;28;20248;-60
2022/10/11 04:46:06;;;;;;;8.10;2.83;;;;;;;;;;5094338;28;20446;-60
2022/10/11 04:48:33;;;;;;;4.40;2.60;;;;;;;;;;5094002;28;20473;-60
2022/10/11 04:51:01;;;;;;;9.87;3.93;;;;;;;;;;5094039;28;20451;-59
2022/10/11 04:53:28;;;;;;;4.03;2.70;;;;;;;;;;5094263;28;20461;-59
2022/10/11 04:55:56;;;;;;;6.23;2.70;;;;;;;;;;5094191;28;20807;-60
2022/10/11 04:58:23;;;;;;;8.00;3.33;;;;;;;;;;5094072;28;20507;-59
2022/10/11 05:00:50;;;;;;;14.33;2.50;;;;;;;;;;5093959;28;20527;-60
2022/10/11 05:03:17;;;;;;;6.83;2.30;;;;;;;;;;5093841;28;20821;-61
2022/10/11 05:05:44;;;;;;;8.40;3.83;;;;;;;;;;5093146;28;20509;-60
2022/10/11 05:08:12;;;;;;;9.60;2.70;;;;;;;;;;5094052;28;20544;-59
2022/10/11 05:10:39;;;;;;;8.00;2.70;;;;;;;;;;5094002;28;20453;-59
2022/10/11 05:13:06;;;;;;;9.13;2.67;;;;;;;;;;5093692;28;21011;-59
2022/10/11 05:15:33;;;;;;;11.48;2.95;;;;;;;;;;5093725;28;20533;-59
2022/10/11 05:18:00;;;;;;;6.00;2.33;;;;;;;;;;5093528;28;20295;-58
2022/10/11 05:20:27;;;;;;;8.77;3.73;;;;;;;;;;5093602;28;20474;-59
2022/10/11 05:22:54;;;;;;;10.93;3.37;;;;;;;;;;5093552;28;20537;-59
2022/10/11 05:25:22;;;;;;;8.37;2.90;;;;;;;;;;5093800;28;20457;-59
2022/10/11 05:27:49;;;;;;;9.27;3.50;;;;;;;;;;5093797;28;20485;-59
2022/10/11 05:30:16;;;;;;;14.80;3.80;;;;;;;;;;5093553;28;20538;-59
2022/10/11 05:32:43;;;;;;;6.67;3.37;;;;;;;;;;5093326;28;20451;-59
2022/10/11 05:35:10;;;;;;;11.23;3.93;;;;;;;;;;5093405;28;20541;-60
2022/10/11 05:37:37;;;;;;;10.53;3.57;;;;;;;;;;5093563;28;20445;-59
2022/10/11 05:40:04;;;;;;;5.27;3.10;;;;;;;;;;5093392;28;20442;-59
2022/10/11 05:42:33;;;;;;;6.23;2.73;;;;;;;;;;5093279;28;20453;-59
2022/10/11 05:44:59;;;;;;;5.00;3.35;;;;;;;;;;5093124;28;20572;-60
2022/10/11 05:47:26;;;;;;;7.33;4.70;;;;;;;;;;5092892;28;20254;-60
2022/10/11 05:49:53;;;;;;;9.63;3.93;;;;;;;;;;5093174;28;20904;-59
2022/10/11 05:52:20;;;;;;;7.00;4.03;;;;;;;;;;5093256;28;20478;-60
2022/10/11 05:54:47;;;;;;;11.90;4.07;;;;;;;;;;5093194;28;20497;-59
2022/10/11 05:57:15;;;;;;;9.33;3.63;;;;;;;;;;5093111;28;20271;-60
2022/10/11 05:59:43;;;;;;;9.30;4.60;;;;;;;;;;5092962;28;20544;-60
2022/10/11 06:02:11;;;;;;;9.02;4.00;;;;;;;;;;5093167;28;20446;-60
2022/10/11 06:04:38;;;;;;;7.60;4.10;;;;;;;;;;5093011;28;20628;-59
2022/10/11 06:07:05;;;;;;;11.37;4.10;;;;;;;;;;5092939;28;20466;-59
2022/10/11 06:09:33;;;;;;;11.27;3.70;;;;;;;;;;5093010;28;20451;-59
2022/10/11 06:12:00;;;;;;;16.20;5.53;;;;;;;;;;5092772;28;20930;-60
2022/10/11 06:14:27;;;;;;;8.43;4.50;;;;;;;;;;5092854;28;20521;-59
2022/10/11 06:16:56;;;;;;;16.10;5.17;;;;;;;;;;5094380;28;20832;-59
2022/10/11 06:19:23;;;;;;;10.35;5.32;;;;;;;;;;5097136;28;20447;-59
2022/10/11 06:21:50;;;;;;;11.27;4.70;;;;;;;;;;5097139;28;20192;-59
2022/10/11 06:24:17;;;;;;;11.37;5.23;;;;;;;;;;5096876;28;20984;-59
2022/10/11 06:26:44;;;;;;;14.57;6.15;;;;;;;;;;5096840;28;20476;-60
2022/10/11 06:29:11;;;;;;;12.23;5.27;;;;;;;;;;5097020;28;20196;-60
2022/10/11 06:31:37;;;;;;;10.27;5.07;;;;;;;;;;5096994;28;20452;-59
2022/10/11 06:34:06;;;;;;;6.88;4.15;;;;;;;;;;5096913;28;20450;-59
2022/10/11 06:36:33;;;;;;;8.00;4.80;;;;;;;;;;5096804;28;20185;-60
2022/10/11 06:39:00;;;;;;;11.90;4.53;;;;;;;;;;5096641;28;20533;-60
2022/10/11 06:41:28;;;;;;;11.30;4.70;;;;;;;;;;5094154;28;20933;-60
2022/10/11 06:43:55;;;;;;;6.30;4.10;;;;;;;;;;5083309;28;20499;-61
2022/10/11 06:46:24;;;;;;;8.63;4.00;;;;;;;;;;5085172;28;20460;-60
2022/10/11 06:48:52;;;;;;;9.43;3.38;;;;;;;;;;5079870;28;20570;-61
2022/10/11 06:51:21;;;;;;;8.13;4.00;;;;;;;;;;5089902;28;20442;-62
2022/10/11 06:53:50;;;;;;;3.80;3.37;;;;;;;;;;5095589;28;20536;-62
2022/10/11 06:56:17;;;;;;;9.88;4.38;;;;;;;;;;5076217;28;20458;-62
2022/10/11 06:58:44;;;;;;;12.00;5.00;;;;;;;;;;5083643;28;20275;-62
2022/10/11 07:01:12;;;;;;;31.90;14.27;;;;;;;;;;5081136;28;20450;-62
2022/10/11 07:03:39;;;;;;;8.83;6.30;;;;;;;;;;5095351;28;20536;-62
2022/10/11 07:06:07;;;;;;;12.23;5.30;;;;;;;;;;5085614;28;20446;-57
2022/10/11 07:08:36;;;;;;;10.30;4.83;;;;;;;;;;5083595;28;20446;-59
2022/10/11 07:11:03;;;;;;;17.43;12.30;;;;;;;;;;5088327;28;20537;-60
2022/10/11 07:13:30;;;;;;;7.93;7.00;;;;;;;;;;5075031;28;20546;-61
2022/10/11 07:15:58;;;;;;;21.53;15.93;;;;;;;;;;5083238;28;20453;-60
2022/10/11 07:18:24;;;;;;;19.83;17.73;;;;;;;;;;5082414;28;20599;-59
2022/10/11 07:20:51;;;;;;;20.20;15.40;;;;;;;;;;5082637;28;20449;-56
2022/10/11 07:23:18;;;;;;;19.00;11.10;;;;;;;;;;5093717;28;20455;-59
2022/10/11 07:25:47;;;;;;;15.65;8.63;;;;;;;;;;5075849;28;20915;-61
2022/10/11 07:28:14;;;;;;;32.17;21.57;;;;;;;;;;5083533;28;20275;-60
2022/10/11 07:30:42;;;;;;;66.00;45.87;;;;;;;;;;5075444;28;20452;-60
2022/10/11 07:33:09;;;;;;;46.07;37.63;;;;;;;;;;5075391;28;20571;-62
2022/10/11 07:35:36;;;;;;;18.27;14.27;;;;;;;;;;5075025;28;20810;-63
2022/10/11 07:38:03;;;;;;;10.60;6.13;;;;;;;;;;5075412;28;20542;-63
2022/10/11 07:40:31;;;;;;;13.33;5.60;;;;;;;;;;5075344;28;20857;-63
2022/10/11 07:42:59;;;;;;;16.43;5.93;;;;;;;;;;5075265;28;20542;-62
2022/10/11 07:45:27;;;;;;;6.43;4.90;;;;;;;;;;5075036;28;20479;-61
2022/10/11 07:47:55;;;;;;;11.97;5.17;;;;;;;;;;5074074;28;20582;-60
2022/10/11 07:50:22;;;;;;;10.10;4.17;;;;;;;;;;5078256;28;20514;-61
2022/10/11 07:52:49;;;;;;;11.47;4.40;;;;;;;;;;5089203;28;20546;-60
2022/10/11 07:55:17;;;;;;;10.70;6.37;;;;;;;;;;5083383;28;20455;-60
2022/10/11 07:57:44;;;;;;;7.13;3.60;;;;;;;;;;5088038;28;20457;-60
2022/10/11 08:00:13;;;;;;;7.07;4.82;;;;;;;;;;5094855;28;20500;-57
2022/10/11 08:02:40;;;;;;;12.00;3.30;;;;;;;;;;5080492;28;20189;-61
2022/10/11 08:05:07;;;;;;;9.20;3.80;;;;;;;;;;5074905;28;20489;-62
2022/10/11 08:07:34;;;;;;;5.00;3.00;;;;;;;;;;5074669;28;20457;-62
2022/10/11 08:10:01;;;;;;;8.63;3.10;;;;;;;;;;5094009;28;20454;-62
2022/10/11 08:12:28;;;;;;;12.30;3.23;;;;;;;;;;5094834;28;20449;-62
2022/10/11 08:14:55;;;;;;;8.60;3.50;;;;;;;;;;5094873;28;20446;-57
2022/10/11 08:17:23;;;;;;;11.73;3.40;;;;;;;;;;5094733;28;20446;-58
2022/10/11 08:19:50;;;;;;;7.30;3.93;;;;;;;;;;5088585;28;20447;-59
2022/10/11 08:22:17;;;;;;;8.40;2.97;;;;;;;;;;5074865;28;20542;-60
2022/10/11 08:24:44;;;;;;;7.40;3.50;;;;;;;;;;5074157;28;20485;-61
2022/10/11 08:27:11;;;;;;;8.33;3.03;;;;;;;;;;5088281;28;20457;-61
2022/10/11 08:29:38;;;;;;;9.40;2.83;;;;;;;;;;5091949;28;20446;-61
2022/10/11 08:32:05;;;;;;;11.57;4.43;;;;;;;;;;5083656;28;20476;-62
2022/10/11 08:34:33;;;;;;;8.38;2.85;;;;;;;;;;5094498;28;20446;-61
2022/10/11 08:37:02;;;;;;;10.48;2.97;;;;;;;;;;5076701;28;20189;-62
2022/10/11 08:39:29;;;;;;;5.13;2.33;;;;;;;;;;5073947;28;20199;-59
2022/10/11 08:41:59;;;;;;;6.70;2.80;;;;;;;;;;5085168;28;20539;-62
2022/10/11 08:44:34;;;;;;;7.20;3.00;;;;;;;;;;5073837;28;20563;-62
2022/10/11 08:47:03;;;;;;;10.03;2.87;;;;;;;;;;5073980;28;20482;-62
2022/10/11 08:49:32;;;;;;;9.53;3.27;;;;;;;;;;5073977;28;20810;-61
2022/10/11 08:52:01;;;;;;;14.23;3.37;;;;;;;;;;5073869;28;20452;-61
2022/10/11 08:54:35;;;;;;;6.90;2.77;;;;;;;;;;5087086;28;20976;-60
2022/10/11 08:57:03;;;;;;;10.17;2.67;;;;;;;;;;5094233;28;20453;-59
2022/10/11 08:59:32;;;;;;;7.93;2.43;;;;;;;;;;5083161;28;20518;-63
2022/10/11 09:02:01;;;;;;;9.50;2.47;;;;;;;;;;5073687;28;20454;-54
2022/10/11 09:04:31;;;;;;;6.40;2.33;;;;;;;;;;5083500;28;20563;-59
2022/10/11 09:07:03;;;;;;;9.77;2.70;;;;;;;;;;5084660;28;20487;-59
2022/10/11 09:09:42;;;;;;;11.03;2.40;;;;;;;;;;5081843;28;20445;-60
2022/10/11 09:12:13;;;;;;;5.17;2.33;;;;;;;;;;5091619;28;20447;-60
2022/10/11 09:14:49;;;;;;;6.78;3.35;;;;;;;;;;5093681;28;20474;-60
2022/10/11 09:17:23;;;;;;;8.07;3.70;;;;;;;;;;5093784;28;20604;-60
2022/10/11 09:20:05;;;;;;;8.90;2.53;;;;;;;;;;5093170;28;20439;-61
2022/10/11 09:22:37;;;;;;;4.67;2.30;;;;;;;;;;5071739;28;20200;-59
2022/10/11 09:25:14;;;;;;;5.30;2.27;;;;;;;;;;5073248;28;20471;-60
2022/10/11 09:27:43;;;;;;;4.23;1.87;;;;;;;;;;5073233;28;20451;-60
2022/10/11 09:30:13;;;;;;;6.17;2.00;;;;;;;;;;5072828;28;20539;-60
2022/10/11 09:32:41;;;;;;;6.47;2.63;;;;;;;;;;5072530;28;20490;-60
2022/10/11 09:35:13;;;;;;;10.63;2.58;;;;;;;;;;5072359;28;20462;-59
2022/10/11 09:37:44;;;;;;;6.47;2.00;;;;;;;;;;5078975;28;20645;-60
2022/10/11 09:40:20;;;;;;;8.27;2.08;;;;;;;;;;5078732;28;20450;-61
2022/10/11 09:42:47;;;;;;;11.70;2.93;;;;;;;;;;5073096;28;20287;-61
2022/10/11 09:45:16;;;;;;;9.67;1.90;;;;;;;;;;5085619;28;20474;-61
2022/10/11 09:47:43;;;;;;;4.73;1.93;;;;;;;;;;5079063;28;20498;-59
2022/10/11 09:50:14;;;;;;;6.33;2.23;;;;;;;;;;5072496;28;21042;-60
2022/10/11 09:52:48;;;;;;;7.50;1.40;;;;;;;;;;5090078;28;20951;-60
2022/10/11 09:55:30;;;;;;;5.27;1.80;;;;;;;;;;5087471;28;20487;-60
2022/10/11 09:57:58;;;;;;;5.00;2.03;;;;;;;;;;5078730;28;20542;-60
2022/10/11 10:00:27;;;;;;;6.47;1.97;;;;;;;;;;5084229;28;20546;-60
2022/10/11 10:02:54;;;;;;;5.10;1.67;;;;;;;;;;5072692;28;20538;-60
2022/10/11 10:05:22;;;;;;;5.60;1.77;;;;;;;;;;5077826;28;20481;-60
2022/10/11 10:08:06;;;;;;;5.70;1.50;;;;;;;;;;5081574;28;20904;-60
2022/10/11 10:10:37;;;;;;;3.90;2.00;;;;;;;;;;5074538;28;20452;-59
2022/10/11 10:13:06;;;;;;;5.87;1.60;;;;;;;;;;5101628;28;20493;-60
2022/10/11 10:15:34;;;;;;;5.67;1.73;;;;;;;;;;5094871;28;20530;-61
2022/10/11 10:18:02;;;;;;;6.77;1.80;;;;;;;;;;5088763;28;20538;-60
2022/10/11 10:20:31;;;;;;;4.30;1.57;;;;;;;;;;5080434;28;20478;-63
2022/10/11 10:22:59;;;;;;;1.90;1.45;;;;;;;;;;5087465;28;20443;-59
2022/10/11 10:25:31;;;;;;;4.70;1.30;;;;;;;;;;5082371;28;20244;-60
2022/10/11 10:27:59;;;;;;;6.33;1.63;;;;;;;;;;5071658;28;20451;-60
2022/10/11 10:30:27;;;;;;;3.42;1.77;;;;;;;;;;5082417;28;20875;-61
2022/10/11 10:32:58;;;;;;;8.47;2.33;;;;;;;;;;5071887;28;20268;-61
2022/10/11 10:35:33;;;;;;;3.43;1.77;;;;;;;;;;5086244;28;20877;-59
2022/10/11 10:38:04;;;;;;;2.90;1.33;;;;;;;;;;5083006;28;20867;-60
2022/10/11 10:40:36;;;;;;;4.70;1.43;;;;;;;;;;5078225;28;20462;-58
2022/10/11 10:43:03;;;;;;;6.37;1.90;;;;;;;;;;5096386;28;20481;-59
2022/10/11 10:45:38;;;;;;;6.37;1.57;;;;;;;;;;5103063;28;20471;-60
2022/10/11 10:48:12;;;;;;;6.47;1.70;;;;;;;;;;5072944;28;20481;-59
2022/10/11 10:50:48;;;;;;;7.23;1.90;;;;;;;;;;5096777;28;20897;-59
2022/10/11 10:53:21;;;;;;;6.60;1.57;;;;;;;;;;5071214;28;20454;-57
2022/10/11 10:55:51;;;;;;;4.50;1.30;;;;;;;;;;5076364;28;20451;-58
2022/10/11 10:58:25;;;;;;;5.10;1.67;;;;;;;;;;5074200;28;20456;-60
2022/10/11 11:00:56;;;;;;;7.47;1.57;;;;;;;;;;5071918;28;20455;-60
2022/10/11 11:03:26;;;;;;;4.30;1.20;;;;;;;;;;5074047;28;20447;-60
2022/10/11 11:05:59;;;;;;;1.80;1.00;;;;;;;;;;5097288;28;20478;-61
2022/10/11 11:08:32;;;;;;;6.27;2.00;;;;;;;;;;5102963;28;20454;-60
2022/10/11 11:11:02;;;;;;;6.65;1.70;;;;;;;;;;5106582;28;20447;-60
2022/10/11 11:13:34;;;;;;;5.40;1.80;;;;;;;;;;5102350;28;20450;-60
2022/10/11 11:16:07;;;;;;;5.07;1.27;;;;;;;;;;5085586;28;20451;-60
2022/10/11 11:18:39;;;;;;;3.90;1.17;;;;;;;;;;5075072;28;20839;-60
2022/10/11 11:21:11;;;;;;;7.27;1.40;;;;;;;;;;5086228;28;20454;-60
2022/10/11 11:23:41;;;;;;;6.67;2.10;;;;;;;;;;5082343;28;20451;-61
2022/10/11 11:26:11;;;;;;;5.70;1.70;;;;;;;;;;5083083;28;20475;-60
2022/10/11 11:28:45;;;;;;;3.92;1.77;;;;;;;;;;5083942;28;20191;-55
2022/10/11 11:31:19;;;;;;;6.00;2.13;;;;;;;;;;5092181;28;20255;-52
2022/10/11 11:33:49;;;;;;;4.27;1.43;;;;;;;;;;5095465;28;20445;-56
2022/10/11 11:36:18;;;;;;;5.53;1.90;;;;;;;;;;5095629;28;20489;-56
2022/10/11 11:38:46;;;;;;;4.80;1.60;;;;;;;;;;5085827;28;20533;-55
2022/10/11 11:41:15;;;;;;;6.47;1.53;;;;;;;;;;5087390;28;20447;-53
2022/10/11 11:43:48;;;;;;;5.10;1.20;;;;;;;;;;5094726;28;20866;-57
2022/10/11 11:46:19;;;;;;;3.30;1.60;;;;;;;;;;5090839;28;20485;-51
2022/10/11 11:48:48;;;;;;;7.30;1.70;;;;;;;;;;5083282;28;20467;-52
2022/10/11 11:51:17;;;;;;;5.70;1.70;;;;;;;;;;5085118;28;20452;-51
2022/10/11 11:53:51;;;;;;;4.50;1.73;;;;;;;;;;5085527;28;20468;-51
2022/10/11 11:56:26;;;;;;;4.23;2.10;;;;;;;;;;5074694;28;20496;-57
2022/10/11 11:58:58;;;;;;;4.80;1.30;;;;;;;;;;5074648;28;20447;-56
2022/10/11 12:01:28;;;;;;;4.37;1.30;;;;;;;;;;5093323;28;20894;-53
2022/10/11 12:03:56;;;;;;;3.08;1.13;;;;;;;;;;5103362;28;20435;-55
2022/10/11 12:06:24;;;;;;;4.00;1.70;;;;;;;;;;5104416;28;20577;-54
2022/10/11 12:09:00;;;;;;;3.47;1.30;;;;;;;;;;5105025;28;20446;-56
2022/10/11 12:11:29;;;;;;;2.90;1.53;;;;;;;;;;5083698;28;20447;-55
2022/10/11 12:13:56;;;;;;;2.58;1.10;;;;;;;;;;5098692;28;20905;-56
2022/10/11 12:16:23;;;;;;;4.70;1.57;;;;;;;;;;5103500;28;20547;-54
2022/10/11 12:18:53;;;;;;;2.73;1.23;;;;;;;;;;5101050;28;20449;-54
2022/10/11 12:21:22;;;;;;;4.40;2.20;;;;;;;;;;5103971;28;20940;-52
2022/10/11 12:23:50;;;;;;;5.50;2.00;;;;;;;;;;5100947;28;20449;-53
2022/10/11 12:26:41;;;;;;;10.52;2.05;;;;;;;;;;5104169;28;20518;-54
2022/10/11 12:29:23;;;;;;;5.68;1.58;;;;;;;;;;5099404;28;20474;-55
2022/10/11 12:31:51;;;;;;;3.37;1.43;;;;;;;;;;5094677;28;20192;-54
2022/10/11 12:34:33;;;;;;;4.80;1.83;;;;;;;;;;5094250;28;20925;-54
2022/10/11 12:37:22;;;;;;;4.93;1.20;;;;;;;;;;5074290;28;20452;-57
2022/10/11 12:39:52;;;;;;;4.57;1.20;;;;;;;;;;5073742;28;20447;-56
2022/10/11 12:42:21;;;;;;;4.20;1.50;;;;;;;;;;5074194;28;20450;-56
2022/10/11 12:45:03;;;;;;;3.30;1.20;;;;;;;;;;5074349;28;20482;-55
2022/10/11 12:47:39;;;;;;;4.40;1.30;;;;;;;;;;5072586;28;20850;-57
2022/10/11 12:50:14;;;;;;;8.53;1.93;;;;;;;;;;5073814;28;20519;-56
2022/10/11 12:52:49;;;;;;;8.50;1.87;;;;;;;;;;5074102;28;20474;-56
2022/10/11 12:55:27;;;;;;;6.72;1.30;;;;;;;;;;5073960;28;20449;-56
2022/10/11 12:58:04;;;;;;;2.57;1.30;;;;;;;;;;5073896;28;20193;-53
2022/10/11 13:00:32;;;;;;;5.28;1.63;;;;;;;;;;5073660;28;20447;-56
2022/10/11 13:03:01;;;;;;;4.53;1.77;;;;;;;;;;5073926;28;20544;-55
2022/10/11 13:05:31;;;;;;;3.90;1.57;;;;;;;;;;5073741;28;20456;-57
2022/10/11 13:08:03;;;;;;;5.20;2.00;;;;;;;;;;5073658;28;20474;-57
2022/10/11 13:10:32;;;;;;;3.70;1.10;;;;;;;;;;5073562;28;20193;-57
2022/10/11 13:13:03;;;;;;;2.83;1.10;;;;;;;;;;5073516;28;20443;-55
2022/10/11 13:15:30;;;;;;;7.00;1.80;;;;;;;;;;5073705;28;20443;-56
2022/10/11 13:17:58;;;;;;;4.40;1.50;;;;;;;;;;5073475;28;20216;-57
2022/10/11 13:20:26;;;;;;;3.10;1.50;;;;;;;;;;5073458;28;20546;-52
2022/10/11 13:22:55;;;;;;;4.60;1.93;;;;;;;;;;5073388;28;20479;-55
2022/10/11 13:25:24;;;;;;;5.50;1.40;;;;;;;;;;5073136;28;20974;-56
2022/10/11 13:27:53;;;;;;;3.47;1.17;;;;;;;;;;5072433;28;20489;-54
2022/10/11 13:30:21;;;;;;;6.00;1.60;;;;;;;;;;5073442;28;20863;-51
2022/10/11 13:32:48;;;;;;;4.57;1.63;;;;;;;;;;5073221;28;20517;-55
2022/10/11 13:35:18;;;;;;;7.27;1.67;;;;;;;;;;5073106;28;20542;-56
2022/10/11 13:37:46;;;;;;;4.87;1.60;;;;;;;;;;5073074;28;20792;-55
2022/10/11 13:40:14;;;;;;;5.28;1.20;;;;;;;;;;5072917;28;20454;-53
2022/10/11 13:42:43;;;;;;;3.50;1.37;;;;;;;;;;5073002;28;20205;-57
2022/10/11 13:45:12;;;;;;;3.30;1.30;;;;;;;;;;5073063;28;20447;-53
2022/10/11 13:47:39;;;;;;;8.27;1.63;;;;;;;;;;5072613;28;20515;-55
2022/10/11 13:50:16;;;;;;;3.80;1.70;;;;;;;;;;5072941;28;20590;-56
2022/10/11 13:52:54;;;;;;;6.60;1.90;;;;;;;;;;5072803;28;20447;-57
2022/10/11 13:55:26;;;;;;;4.13;1.57;;;;;;;;;;5072963;28;20550;-55
2022/10/11 13:57:55;;;;;;;4.80;1.47;;;;;;;;;;5073113;28;20961;-55
2022/10/11 14:00:23;;;;;;;6.10;1.97;;;;;;;;;;5072797;28;20453;-56
2022/10/11 14:02:52;;;;;;;8.60;1.67;;;;;;;;;;5072789;28;20443;-55
2022/10/11 14:05:23;;;;;;;4.20;1.50;;;;;;;;;;5072663;28;20796;-56
2022/10/11 14:07:50;;;;;;;3.30;1.30;;;;;;;;;;5072866;28;20480;-56
2022/10/11 14:10:19;;;;;;;2.00;1.27;;;;;;;;;;5072844;28;20534;-55
2022/10/11 14:12:57;;;;;;;4.17;1.57;;;;;;;;;;5072884;28;20537;-55
2022/10/11 14:15:27;;;;;;;3.80;1.30;;;;;;;;;;5072586;28;20526;-57
2022/10/11 14:17:54;;;;;;;5.20;1.80;;;;;;;;;;5072814;28;20505;-57
2022/10/11 14:20:22;;;;;;;9.73;2.00;;;;;;;;;;5072959;28;20447;-58
2022/10/11 14:22:51;;;;;;;2.63;1.63;;;;;;;;;;5073066;28;20447;-56
2022/10/11 14:25:18;;;;;;;6.57;2.40;;;;;;;;;;5072856;28;20562;-57
2022/10/11 14:27:45;;;;;;;5.43;1.30;;;;;;;;;;5072788;28;20483;-57
2022/10/11 14:30:15;;;;;;;6.70;1.93;;;;;;;;;;5072517;28;20539;-57
2022/10/11 14:32:43;;;;;;;5.40;1.23;;;;;;;;;;5072769;28;20508;-58
2022/10/11 14:35:15;;;;;;;3.20;1.67;;;;;;;;;;5072646;28;20447;-57
2022/10/11 14:37:42;;;;;;;4.43;1.60;;;;;;;;;;5073647;28;20459;-54
2022/10/11 14:40:12;;;;;;;9.57;2.07;;;;;;;;;;5076447;28;20470;-53
2022/10/11 14:42:39;;;;;;;10.55;1.67;;;;;;;;;;5076349;28;20454;-57
2022/10/11 14:45:07;;;;;;;5.70;1.73;;;;;;;;;;5076304;28;20645;-57
2022/10/11 14:47:34;;;;;;;3.50;1.08;;;;;;;;;;5076138;28;20497;-55
2022/10/11 14:50:03;;;;;;;3.70;1.30;;;;;;;;;;5076324;28;20185;-57
2022/10/11 14:52:29;;;;;;;4.50;1.70;;;;;;;;;;5076183;28;20448;-55